createdAt,value
2022-12-08T00:01:21.760Z,4.47
2022-12-08T00:03:48.872Z,4.32
2022-12-08T00:06:27.639Z,4.53
2022-12-08T00:08:54.255Z,6.18
2022-12-08T00:11:21.008Z,3.78
2022-12-08T00:13:47.704Z,2.60
2022-12-08T00:16:14.757Z,4.32
2022-12-08T00:18:41.510Z,3.00
2022-12-08T00:21:08.116Z,4.00
2022-12-08T00:23:34.790Z,2.83
2022-12-08T00:26:04.756Z,2.85
2022-12-08T00:30:58.599Z,1.67
2022-12-08T00:33:25.226Z,3.25
2022-12-08T00:35:51.847Z,5.32
2022-12-08T00:38:18.603Z,2.70
2022-12-08T00:40:46.103Z,3.88
2022-12-08T00:43:14.835Z,3.00
2022-12-08T00:45:41.605Z,3.75
2022-12-08T00:48:08.365Z,5.70
2022-12-08T00:50:35.068Z,4.22
2022-12-08T00:53:01.723Z,3.55
2022-12-08T00:55:28.317Z,10.20
2022-12-08T00:57:54.941Z,5.10
2022-12-08T01:00:21.645Z,5.05
2022-12-08T01:02:48.326Z,5.80
2022-12-08T01:05:14.940Z,4.65
2022-12-08T01:07:41.598Z,6.95
2022-12-08T01:10:08.585Z,3.78
2022-12-08T01:12:35.432Z,2.80
2022-12-08T01:15:02.871Z,3.55
2022-12-08T01:17:29.810Z,3.95
2022-12-08T01:19:56.428Z,2.17
2022-12-08T01:22:23.079Z,4.18
2022-12-08T01:24:49.707Z,3.53
2022-12-08T01:27:16.442Z,3.72
2022-12-08T01:29:43.192Z,4.07
2022-12-08T01:32:09.810Z,5.68
2022-12-08T01:34:36.441Z,4.78
2022-12-08T01:37:03.038Z,9.02
2022-12-08T01:39:29.710Z,13.00
2022-12-08T01:41:56.340Z,6.72
2022-12-08T01:44:22.912Z,7.75
2022-12-08T01:46:49.506Z,9.63
2022-12-08T01:49:30.700Z,8.07
2022-12-08T01:52:00.699Z,10.13
2022-12-08T01:57:05.250Z,16.77
2022-12-08T01:59:33.108Z,19.75
2022-12-08T02:02:06.616Z,19.95
2022-12-08T02:04:33.341Z,19.08
2022-12-08T02:07:03.675Z,21.45
2022-12-08T02:09:34.314Z,23.05
2022-12-08T02:12:00.958Z,20.30
2022-12-08T02:14:27.609Z,20.88
2022-12-08T02:17:29.038Z,19.85
2022-12-08T02:20:13.012Z,16.63
2022-12-08T02:22:52.206Z,16.83
2022-12-08T02:25:46.662Z,16.20
2022-12-08T02:28:37.214Z,8.82
2022-12-08T02:31:17.669Z,7.60
2022-12-08T02:34:00.634Z,6.32
2022-12-08T02:36:36.186Z,7.10
2022-12-08T02:39:27.109Z,4.68
2022-12-08T02:42:10.106Z,3.47
2022-12-08T02:44:43.160Z,3.63
2022-12-08T02:47:18.188Z,5.10
2022-12-08T02:49:44.886Z,8.73
2022-12-08T02:52:14.578Z,7.07
2022-12-08T02:54:49.375Z,3.25
2022-12-08T02:57:20.955Z,4.93
2022-12-08T03:00:14.419Z,4.80
2022-12-08T03:02:45.643Z,7.82
2022-12-08T03:05:18.368Z,2.55
2022-12-08T03:07:55.273Z,3.28
2022-12-08T03:10:30.426Z,1.80
2022-12-08T03:13:01.264Z,3.55
2022-12-08T03:15:27.983Z,1.38
2022-12-08T03:17:58.083Z,2.05
2022-12-08T03:20:25.864Z,1.80
2022-12-08T03:22:53.505Z,1.30
2022-12-08T03:25:22.029Z,1.70
2022-12-08T03:27:48.715Z,2.88
2022-12-08T03:30:15.505Z,2.30
2022-12-08T03:32:48.341Z,2.05
2022-12-08T03:35:16.548Z,5.35
2022-12-08T03:37:43.460Z,4.95
2022-12-08T03:40:12.250Z,7.55
2022-12-08T03:42:38.889Z,2.72
2022-12-08T03:45:06.149Z,4.15
2022-12-08T03:47:32.802Z,3.97
2022-12-08T03:49:59.456Z,2.70
2022-12-08T03:52:26.055Z,2.25
2022-12-08T03:54:52.655Z,2.55
2022-12-08T03:57:19.466Z,5.65
2022-12-08T03:59:46.086Z,3.30
2022-12-08T04:02:12.808Z,2.67
2022-12-08T04:04:39.494Z,4.75
2022-12-08T04:07:06.137Z,6.38
2022-12-08T04:09:32.756Z,8.93
2022-12-08T04:11:59.379Z,5.22
2022-12-08T04:14:26.010Z,8.80
2022-12-08T04:16:52.752Z,3.60
2022-12-08T04:19:19.391Z,4.05
2022-12-08T04:21:46.044Z,7.40
2022-12-08T04:24:12.678Z,5.63
2022-12-08T04:26:39.423Z,12.30
2022-12-08T04:29:06.002Z,3.50
2022-12-08T04:31:32.876Z,7.63
2022-12-08T04:33:59.518Z,9.65
2022-12-08T04:36:26.100Z,9.32
2022-12-08T04:38:52.713Z,7.60
2022-12-08T04:41:19.440Z,5.60
2022-12-08T04:43:46.130Z,7.38
2022-12-08T04:46:12.956Z,7.68
2022-12-08T04:48:39.776Z,3.72
2022-12-08T04:51:06.740Z,5.72
2022-12-08T04:53:33.447Z,7.38
2022-12-08T04:56:00.093Z,4.28
2022-12-08T04:58:26.697Z,7.15
2022-12-08T05:00:53.428Z,7.55
2022-12-08T05:03:25.285Z,8.93
2022-12-08T05:05:55.092Z,4.82
2022-12-08T05:08:21.792Z,7.70
2022-12-08T05:10:48.575Z,7.18
2022-12-08T05:13:15.317Z,11.32
2022-12-08T05:15:41.990Z,8.68
2022-12-08T05:18:08.598Z,7.57
2022-12-08T05:20:35.483Z,7.93
2022-12-08T05:23:02.096Z,9.25
2022-12-08T05:25:28.904Z,6.50
2022-12-08T05:28:17.624Z,5.90
2022-12-08T05:30:42.220Z,10.50
2022-12-08T05:33:08.870Z,6.05
2022-12-08T05:35:35.500Z,9.50
2022-12-08T05:38:02.091Z,11.73
2022-12-08T05:40:28.700Z,5.07
2022-12-08T05:42:55.299Z,7.38
2022-12-08T05:45:21.877Z,8.55
2022-12-08T05:47:48.560Z,6.07
2022-12-08T05:50:15.250Z,11.63
2022-12-08T05:52:41.896Z,9.05
2022-12-08T05:55:08.904Z,5.10
2022-12-08T05:57:35.639Z,10.82
2022-12-08T06:00:03.032Z,8.30
2022-12-08T06:02:30.101Z,6.57
2022-12-08T06:04:56.919Z,8.68
2022-12-08T06:07:23.630Z,8.75
2022-12-08T06:09:50.295Z,9.25
2022-12-08T06:12:16.999Z,6.72
2022-12-08T06:14:43.792Z,8.93
2022-12-08T06:17:10.494Z,7.82
2022-12-08T06:19:37.191Z,7.95
2022-12-08T06:22:03.951Z,9.45
2022-12-08T06:24:30.549Z,6.57
2022-12-08T06:26:57.337Z,8.52
2022-12-08T06:29:24.028Z,9.98
2022-12-08T06:31:51.237Z,8.15
2022-12-08T06:34:17.973Z,8.18
2022-12-08T06:36:44.658Z,8.02
2022-12-08T06:39:11.278Z,6.18
2022-12-08T06:41:38.485Z,6.43
2022-12-08T06:44:05.134Z,8.15
2022-12-08T06:46:31.920Z,8.20
2022-12-08T06:48:58.757Z,8.23
2022-12-08T06:51:25.375Z,5.68
2022-12-08T06:53:52.030Z,8.50
2022-12-08T06:56:18.666Z,11.18
2022-12-08T06:58:50.550Z,9.55
2022-12-08T07:01:18.736Z,7.72
2022-12-08T07:03:45.516Z,6.25
2022-12-08T07:06:23.974Z,3.13
2022-12-08T07:08:50.957Z,11.20
2022-12-08T07:11:21.506Z,3.25
2022-12-08T07:13:48.892Z,7.57
2022-12-08T07:16:15.995Z,7.40
2022-12-08T07:18:42.865Z,10.07
2022-12-08T07:21:13.281Z,7.85
2022-12-08T07:23:40.278Z,8.13
2022-12-08T07:26:07.779Z,5.45
2022-12-08T07:28:35.205Z,5.63
2022-12-08T07:31:01.920Z,7.00
2022-12-08T07:33:28.629Z,9.50
2022-12-08T07:35:55.977Z,6.97
2022-12-08T07:38:24.833Z,10.60
2022-12-08T07:40:52.509Z,13.55
2022-12-08T07:43:19.228Z,8.18
2022-12-08T07:45:46.080Z,6.00
2022-12-08T07:48:12.880Z,6.45
2022-12-08T07:50:39.781Z,5.35
2022-12-08T07:53:06.466Z,6.93
2022-12-08T07:55:33.169Z,6.53
2022-12-08T07:57:59.844Z,8.25
2022-12-08T08:00:27.607Z,6.82
2022-12-08T08:02:54.413Z,10.68
2022-12-08T08:05:21.965Z,6.97
2022-12-08T08:07:48.710Z,7.32
2022-12-08T08:10:15.464Z,6.22
2022-12-08T08:12:42.045Z,7.63
2022-12-08T08:15:09.013Z,5.38
2022-12-08T08:17:36.756Z,10.55
2022-12-08T08:20:07.595Z,10.07
2022-12-08T08:22:34.415Z,7.53
2022-12-08T08:25:01.020Z,7.43
2022-12-08T08:27:27.649Z,5.15
2022-12-08T08:29:54.383Z,7.47
2022-12-08T08:32:21.172Z,4.38
2022-12-08T08:34:47.840Z,8.10
2022-12-08T08:37:14.494Z,4.90
2022-12-08T08:39:41.159Z,5.72
2022-12-08T08:42:07.785Z,3.75
2022-12-08T08:44:34.544Z,6.55
2022-12-08T08:47:01.124Z,3.78
2022-12-08T08:49:27.923Z,6.18
2022-12-08T08:51:54.577Z,4.43
2022-12-08T08:54:21.146Z,5.78
2022-12-08T08:56:47.834Z,4.93
2022-12-08T08:59:14.488Z,5.65
2022-12-08T09:01:41.154Z,5.22
2022-12-08T09:04:07.838Z,6.13
2022-12-08T09:06:34.626Z,5.72
2022-12-08T09:09:01.318Z,5.15
2022-12-08T09:11:27.980Z,5.75
2022-12-08T09:13:54.723Z,7.13
2022-12-08T09:16:21.875Z,5.93
2022-12-08T09:18:48.589Z,8.13
2022-12-08T09:21:16.930Z,5.80
2022-12-08T09:23:43.809Z,12.32
2022-12-08T09:26:10.641Z,5.10
2022-12-08T09:28:37.507Z,5.90
2022-12-08T09:31:04.370Z,6.05
2022-12-08T09:33:31.106Z,3.33
2022-12-08T09:36:02.251Z,4.28
2022-12-08T09:38:28.974Z,6.28
2022-12-08T09:40:55.592Z,3.92
2022-12-08T09:43:49.983Z,4.80
2022-12-08T09:46:16.755Z,6.95
2022-12-08T09:48:45.543Z,3.03
2022-12-08T09:51:12.331Z,2.90
2022-12-08T09:53:54.927Z,4.50
2022-12-08T09:56:23.082Z,3.72
2022-12-08T09:58:57.887Z,4.15
2022-12-08T10:01:31.240Z,6.30
2022-12-08T10:03:58.093Z,6.07
2022-12-08T10:06:37.447Z,3.55
2022-12-08T10:09:12.818Z,5.72
2022-12-08T10:12:01.553Z,6.55
2022-12-08T10:14:42.193Z,6.20
2022-12-08T10:17:35.242Z,3.35
2022-12-08T10:20:12.494Z,4.28
2022-12-08T10:22:44.475Z,7.93
2022-12-08T10:25:18.174Z,5.20
2022-12-08T10:27:44.796Z,7.47
2022-12-08T10:30:15.079Z,4.35
2022-12-08T10:32:42.364Z,7.18
2022-12-08T10:35:13.642Z,6.18
2022-12-08T10:37:40.294Z,3.70
2022-12-08T10:40:17.049Z,6.28
2022-12-08T10:42:48.549Z,5.45
2022-12-08T10:45:20.610Z,4.47
2022-12-08T10:48:04.255Z,3.58
2022-12-08T10:51:02.273Z,1.83
2022-12-08T10:53:32.773Z,3.53
2022-12-08T10:56:02.572Z,2.40
2022-12-08T11:01:12.986Z,3.50
2022-12-08T11:03:56.725Z,3.08
2022-12-08T11:06:33.964Z,2.47
2022-12-08T11:09:02.825Z,2.13
2022-12-08T11:11:56.732Z,2.00
2022-12-08T11:14:26.957Z,2.63
2022-12-08T11:17:22.902Z,2.20
2022-12-08T11:19:59.765Z,1.77
2022-12-08T11:22:30.924Z,1.77
2022-12-08T11:25:11.991Z,2.78
2022-12-08T11:27:42.988Z,3.50
2022-12-08T11:30:27.930Z,1.30
2022-12-08T11:33:02.089Z,1.50
2022-12-08T11:35:37.540Z,1.17
2022-12-08T11:38:22.586Z,1.05
2022-12-08T11:40:52.321Z,2.67
2022-12-08T11:43:33.860Z,1.98
2022-12-08T11:46:12.024Z,0.68
2022-12-08T11:49:12.351Z,2.28
2022-12-08T11:51:54.426Z,1.85
2022-12-08T11:54:35.330Z,0.75
2022-12-08T11:57:05.859Z,3.45
2022-12-08T11:59:43.947Z,1.30
2022-12-08T12:02:25.666Z,2.15
2022-12-08T12:05:33.243Z,2.55
2022-12-08T12:08:17.179Z,1.20
2022-12-08T12:10:54.809Z,3.05
2022-12-08T12:13:21.378Z,1.90
2022-12-08T12:16:06.900Z,2.70
2022-12-08T12:18:43.330Z,1.27
2022-12-08T12:21:26.666Z,2.08
2022-12-08T12:23:56.611Z,3.17
2022-12-08T12:26:28.265Z,1.50
2022-12-08T12:28:57.952Z,2.13
2022-12-08T12:31:35.542Z,2.60
2022-12-08T12:34:21.723Z,1.60
2022-12-08T12:37:11.169Z,4.93
2022-12-08T12:39:52.666Z,2.97
2022-12-08T12:42:41.803Z,6.03
2022-12-08T12:45:14.151Z,3.80
2022-12-08T12:47:56.022Z,0.85
2022-12-08T12:50:35.136Z,2.38
2022-12-08T12:53:09.204Z,1.85
2022-12-08T12:55:58.393Z,3.40
2022-12-08T12:58:28.065Z,1.17
2022-12-08T13:01:12.997Z,1.65
2022-12-08T13:03:46.655Z,3.05
2022-12-08T13:06:14.838Z,1.48
2022-12-08T13:08:54.956Z,2.78
2022-12-08T13:11:21.948Z,0.60
2022-12-08T13:14:01.432Z,1.50
2022-12-08T13:16:31.008Z,2.33
2022-12-08T13:18:59.028Z,0.63
2022-12-08T13:21:31.560Z,4.38
2022-12-08T13:24:15.560Z,1.55
2022-12-08T13:26:46.287Z,1.92
2022-12-08T13:29:23.329Z,2.10
2022-12-08T13:31:56.574Z,1.27
2022-12-08T13:34:43.770Z,2.45
2022-12-08T13:37:13.408Z,2.65
2022-12-08T13:39:40.270Z,2.33
2022-12-08T13:42:12.763Z,1.90
2022-12-08T13:49:03.342Z,4.50
2022-12-08T13:57:28.353Z,2.83
2022-12-08T13:59:57.009Z,4.30
2022-12-08T14:02:27.460Z,4.05
2022-12-08T14:05:17.464Z,3.85
2022-12-08T14:07:41.552Z,2.92
2022-12-08T14:10:19.683Z,3.05
2022-12-08T14:12:47.742Z,3.50
2022-12-08T14:15:14.991Z,3.65
2022-12-08T14:17:44.752Z,4.57
2022-12-08T14:20:24.741Z,4.72
2022-12-08T14:22:51.724Z,6.18
2022-12-08T14:25:18.662Z,5.88
2022-12-08T14:27:45.365Z,6.15
2022-12-08T14:30:21.771Z,4.03
2022-12-08T14:32:49.151Z,4.50
2022-12-08T14:35:23.540Z,6.63
2022-12-08T14:37:51.427Z,4.18
2022-12-08T14:40:34.154Z,4.18
2022-12-08T14:43:10.002Z,5.97
2022-12-08T14:45:42.232Z,2.40
2022-12-08T14:48:39.216Z,3.00
2022-12-08T14:51:09.564Z,5.68
2022-12-08T14:53:46.933Z,6.35
2022-12-08T14:56:18.856Z,3.20
2022-12-08T14:58:45.583Z,4.90
2022-12-08T15:01:17.123Z,4.63
2022-12-08T15:03:50.387Z,5.65
2022-12-08T15:06:17.837Z,4.07
2022-12-08T15:09:14.722Z,4.47
2022-12-08T15:11:41.418Z,6.97
2022-12-08T15:14:36.820Z,4.20
2022-12-08T15:17:04.274Z,5.25
2022-12-08T15:19:32.329Z,6.45
2022-12-08T15:22:19.826Z,6.75
2022-12-08T15:24:46.732Z,4.68
2022-12-08T15:27:20.809Z,6.53
2022-12-08T15:29:48.380Z,5.57
2022-12-08T15:32:21.838Z,5.32
2022-12-08T15:34:48.521Z,6.43
2022-12-08T15:37:19.968Z,8.75
2022-12-08T15:39:46.643Z,7.22
2022-12-08T15:42:13.239Z,6.75
2022-12-08T15:44:39.897Z,8.93
2022-12-08T15:47:06.710Z,8.00
2022-12-08T15:49:33.430Z,8.23
2022-12-08T15:52:10.825Z,9.35
2022-12-08T15:54:38.063Z,10.75
2022-12-08T15:57:20.170Z,9.38
2022-12-08T15:59:51.455Z,9.75
2022-12-08T16:02:22.978Z,7.53
2022-12-08T16:07:38.564Z,12.65
2022-12-08T16:10:06.877Z,8.60
2022-12-08T16:13:13.420Z,9.75
2022-12-08T16:15:50.049Z,6.30
2022-12-08T16:18:07.626Z,7.75
2022-12-08T16:23:41.791Z,12.43
2022-12-08T16:27:01.209Z,11.50
2022-12-08T16:29:08.414Z,11.32
2022-12-08T16:31:35.138Z,12.63
2022-12-08T16:34:01.965Z,13.43
2022-12-08T16:36:28.644Z,10.70
2022-12-08T16:38:55.339Z,13.88
2022-12-08T16:41:22.024Z,17.40
2022-12-08T16:43:48.686Z,16.02
2022-12-08T16:46:19.299Z,12.68
2022-12-08T16:48:47.084Z,10.02
2022-12-08T16:51:19.753Z,15.15
2022-12-08T16:53:50.309Z,14.25
2022-12-08T16:56:20.606Z,12.13
2022-12-08T16:58:47.652Z,9.43
2022-12-08T17:01:15.734Z,12.55
2022-12-08T17:03:51.698Z,10.80
2022-12-08T17:06:28.544Z,11.00
2022-12-08T17:08:55.238Z,10.07
2022-12-08T17:11:23.112Z,10.77
2022-12-08T17:13:49.834Z,12.32
2022-12-08T17:16:17.845Z,13.45
2022-12-08T17:18:44.937Z,13.00
2022-12-08T17:21:12.483Z,11.70
2022-12-08T17:23:39.951Z,10.85
2022-12-08T17:26:06.779Z,11.70
2022-12-08T17:28:58.826Z,10.77
2022-12-08T17:31:23.387Z,11.18
2022-12-08T17:33:52.844Z,5.53
2022-12-08T17:36:19.581Z,6.38
2022-12-08T17:38:46.252Z,4.25
2022-12-08T17:41:12.879Z,7.65
2022-12-08T17:43:39.492Z,6.10
2022-12-08T17:46:06.231Z,4.50
2022-12-08T17:48:32.975Z,7.47
2022-12-08T17:50:59.649Z,5.45
2022-12-08T17:53:26.353Z,8.88
2022-12-08T17:55:54.230Z,8.13
2022-12-08T17:58:21.444Z,11.45
2022-12-08T18:00:48.293Z,7.13
2022-12-08T18:03:15.276Z,4.50
2022-12-08T18:05:41.894Z,5.75
2022-12-08T18:08:08.605Z,10.40
2022-12-08T18:10:35.281Z,1.92
2022-12-08T18:13:01.999Z,4.93
2022-12-08T18:15:28.689Z,5.82
2022-12-08T18:17:55.318Z,5.95
2022-12-08T18:20:22.013Z,6.78
2022-12-08T18:22:48.589Z,5.07
2022-12-08T18:25:15.315Z,6.70
2022-12-08T18:27:43.366Z,4.85
2022-12-08T18:30:13.877Z,4.07
2022-12-08T18:32:40.653Z,5.60
2022-12-08T18:35:07.464Z,4.78
2022-12-08T18:37:34.379Z,7.30
2022-12-08T18:40:00.985Z,3.33
2022-12-08T18:42:27.755Z,4.47
2022-12-08T18:44:56.515Z,5.13
2022-12-08T18:47:23.461Z,5.50
2022-12-08T18:49:50.191Z,4.45
2022-12-08T18:52:20.836Z,5.65
2022-12-08T18:55:08.240Z,6.25
2022-12-08T18:57:37.063Z,6.35
2022-12-08T19:00:05.527Z,11.05
2022-12-08T19:02:32.565Z,7.53
2022-12-08T19:04:59.348Z,11.00
2022-12-08T19:07:26.066Z,35.95
2022-12-08T19:09:52.763Z,12.48
2022-12-08T19:12:19.381Z,9.25
2022-12-08T19:14:46.004Z,11.45
2022-12-08T19:17:12.730Z,8.18
2022-12-08T19:19:40.429Z,16.83
2022-12-08T19:22:07.184Z,12.73
2022-12-08T19:24:33.885Z,12.63
2022-12-08T19:27:00.993Z,11.40
2022-12-08T19:29:27.594Z,14.25
2022-12-08T19:31:55.692Z,9.55
2022-12-08T19:34:22.554Z,9.68
2022-12-08T19:36:49.319Z,10.32
2022-12-08T19:39:17.614Z,9.75
2022-12-08T19:41:44.434Z,8.90
2022-12-08T19:44:18.750Z,7.25
2022-12-08T19:46:45.701Z,10.15
2022-12-08T19:49:12.471Z,10.50
2022-12-08T19:51:39.074Z,8.93
2022-12-08T19:54:05.988Z,10.57
2022-12-08T19:56:32.613Z,12.10
2022-12-08T19:58:59.453Z,11.45
2022-12-08T20:01:26.401Z,11.45
2022-12-08T20:03:53.455Z,8.73
2022-12-08T20:06:20.307Z,10.02
2022-12-08T20:08:50.571Z,10.10
2022-12-08T20:11:17.795Z,13.65
2022-12-08T20:13:44.429Z,13.95
2022-12-08T20:16:11.904Z,11.68
2022-12-08T20:18:40.497Z,11.57
2022-12-08T20:21:07.506Z,11.95
2022-12-08T20:23:34.318Z,11.15
2022-12-08T20:26:05.025Z,14.73
2022-12-08T20:28:32.107Z,10.30
2022-12-08T20:30:59.094Z,18.15
2022-12-08T20:33:27.129Z,14.70
2022-12-08T20:36:00.745Z,15.98
2022-12-08T20:38:28.293Z,19.73
2022-12-08T20:40:55.440Z,15.15
2022-12-08T20:43:22.219Z,19.23
2022-12-08T20:45:49.044Z,19.02
2022-12-08T20:48:15.935Z,21.35
2022-12-08T20:50:42.686Z,22.65
2022-12-08T20:53:09.588Z,20.83
2022-12-08T20:55:36.432Z,26.75
2022-12-08T20:58:03.164Z,28.45
2022-12-08T21:00:30.214Z,23.80
2022-12-08T21:02:57.505Z,24.15
2022-12-08T21:05:24.391Z,20.27
2022-12-08T21:07:51.402Z,19.08
2022-12-08T21:10:18.312Z,20.73
2022-12-08T21:12:45.163Z,21.27
2022-12-08T21:15:12.079Z,22.17
2022-12-08T21:17:39.202Z,24.60
2022-12-08T21:20:07.416Z,22.38
2022-12-08T21:22:34.984Z,20.42
2022-12-08T21:25:02.328Z,23.00
2022-12-08T21:27:29.442Z,23.80
2022-12-08T21:29:56.279Z,24.02
2022-12-08T21:32:28.593Z,22.48
2022-12-08T21:34:57.017Z,22.08
2022-12-08T21:37:23.707Z,22.27
2022-12-08T21:39:50.872Z,21.35
2022-12-08T21:42:21.500Z,23.48
2022-12-08T21:44:49.581Z,25.40
2022-12-08T21:47:16.429Z,22.00
2022-12-08T21:49:43.488Z,24.20
2022-12-08T21:52:10.405Z,23.10
2022-12-08T21:54:37.264Z,22.25
2022-12-08T21:57:04.189Z,21.60
2022-12-08T21:59:31.225Z,22.17
2022-12-08T22:01:58.174Z,24.17
2022-12-08T22:04:25.227Z,22.98
2022-12-08T22:06:52.337Z,25.40
2022-12-08T22:09:19.413Z,31.00
2022-12-08T22:11:46.332Z,23.20
2022-12-08T22:14:15.112Z,23.83
2022-12-08T22:16:44.353Z,25.98
2022-12-08T22:19:11.717Z,22.77
2022-12-08T22:21:38.535Z,24.80
2022-12-08T22:24:05.872Z,28.92
2022-12-08T22:26:32.712Z,25.02
2022-12-08T22:28:59.642Z,33.33
2022-12-08T22:31:26.341Z,25.35
2022-12-08T22:33:53.015Z,26.55
2022-12-08T22:36:21.386Z,34.45
2022-12-08T22:38:48.458Z,33.10
2022-12-08T22:41:15.495Z,30.98
2022-12-08T22:43:42.448Z,29.05
2022-12-08T22:46:16.314Z,27.02
2022-12-08T22:48:43.230Z,29.52
2022-12-08T22:51:10.123Z,32.13
2022-12-08T22:53:36.993Z,34.72
2022-12-08T22:56:08.088Z,24.55
2022-12-08T22:58:36.513Z,34.25
2022-12-08T23:01:03.438Z,30.70
2022-12-08T23:03:30.305Z,30.50
2022-12-08T23:05:57.372Z,30.85
2022-12-08T23:08:24.348Z,29.15
2022-12-08T23:10:52.340Z,28.77
2022-12-08T23:13:19.197Z,28.75
2022-12-08T23:15:45.999Z,29.30
2022-12-08T23:18:17.092Z,30.17
2022-12-08T23:20:43.772Z,29.63
2022-12-08T23:23:10.484Z,32.80
2022-12-08T23:25:43.432Z,33.70
2022-12-08T23:28:10.253Z,32.05
2022-12-08T23:30:39.248Z,29.95
2022-12-08T23:33:06.015Z,35.15
2022-12-08T23:35:32.868Z,33.67
2022-12-08T23:37:59.496Z,36.90
2022-12-08T23:40:26.283Z,34.50
2022-12-08T23:42:53.044Z,36.13
2022-12-08T23:45:19.680Z,30.13
2022-12-08T23:47:46.579Z,33.67
2022-12-08T23:50:13.263Z,39.30
2022-12-08T23:52:40.217Z,30.70
2022-12-08T23:55:07.846Z,39.65
2022-12-08T23:57:37.592Z,31.02
